sensor_id;sensor_type;location;lat;lon;timestamp;P1;durP1;ratioP1;P2;durP2;ratioP2
42760;SDS011;31672;47.638;19.026;2024-03-07T00:03:06;6.47;;;3.40;;
42760;SDS011;31672;47.638;19.026;2024-03-07T00:08:10;6.90;;;3.33;;
42760;SDS011;31672;47.638;19.026;2024-03-07T00:13:14;5.93;;;2.73;;
42760;SDS011;31672;47.638;19.026;2024-03-07T00:18:18;4.97;;;3.00;;
42760;SDS011;31672;47.638;19.026;2024-03-07T00:23:22;7.07;;;3.13;;
42760;SDS011;31672;47.638;19.026;2024-03-07T00:28:26;6.77;;;3.23;;
42760;SDS011;31672;47.638;19.026;2024-03-07T00:33:35;6.67;;;3.60;;
42760;SDS011;31672;47.638;19.026;2024-03-07T00:38:58;5.77;;;3.30;;
42760;SDS011;31672;47.638;19.026;2024-03-07T00:44:03;5.77;;;2.90;;
42760;SDS011;31672;47.638;19.026;2024-03-07T00:49:07;6.77;;;3.53;;
42760;SDS011;31672;47.638;19.026;2024-03-07T00:54:10;6.10;;;2.70;;
42760;SDS011;31672;47.638;19.026;2024-03-07T00:59:15;5.73;;;3.10;;
42760;SDS011;31672;47.638;19.026;2024-03-07T01:04:19;7.83;;;3.10;;
42760;SDS011;31672;47.638;19.026;2024-03-07T01:09:24;5.63;;;2.80;;
42760;SDS011;31672;47.638;19.026;2024-03-07T01:14:33;6.27;;;2.70;;
42760;SDS011;31672;47.638;19.026;2024-03-07T01:19:38;5.90;;;3.07;;
42760;SDS011;31672;47.638;19.026;2024-03-07T01:24:41;4.90;;;2.80;;
42760;SDS011;31672;47.638;19.026;2024-03-07T01:29:46;4.63;;;3.03;;
42760;SDS011;31672;47.638;19.026;2024-03-07T01:34:49;5.87;;;2.90;;
42760;SDS011;31672;47.638;19.026;2024-03-07T01:39:53;5.60;;;2.27;;
42760;SDS011;31672;47.638;19.026;2024-03-07T01:44:57;4.07;;;2.30;;
42760;SDS011;31672;47.638;19.026;2024-03-07T01:50:03;6.03;;;2.80;;
42760;SDS011;31672;47.638;19.026;2024-03-07T01:55:07;6.53;;;3.00;;
42760;SDS011;31672;47.638;19.026;2024-03-07T02:00:13;5.37;;;2.80;;
42760;SDS011;31672;47.638;19.026;2024-03-07T02:05:16;5.30;;;2.60;;
42760;SDS011;31672;47.638;19.026;2024-03-07T02:10:20;4.67;;;2.57;;
42760;SDS011;31672;47.638;19.026;2024-03-07T02:15:27;5.33;;;2.47;;
42760;SDS011;31672;47.638;19.026;2024-03-07T02:20:30;4.83;;;2.73;;
42760;SDS011;31672;47.638;19.026;2024-03-07T02:25:34;5.90;;;3.13;;
42760;SDS011;31672;47.638;19.026;2024-03-07T02:30:40;3.83;;;2.10;;
42760;SDS011;31672;47.638;19.026;2024-03-07T02:35:45;5.37;;;2.67;;
42760;SDS011;31672;47.638;19.026;2024-03-07T02:40:49;3.80;;;2.27;;
42760;SDS011;31672;47.638;19.026;2024-03-07T02:45:53;3.67;;;2.50;;
42760;SDS011;31672;47.638;19.026;2024-03-07T02:50:58;6.73;;;2.70;;
42760;SDS011;31672;47.638;19.026;2024-03-07T02:56:02;4.60;;;2.47;;
42760;SDS011;31672;47.638;19.026;2024-03-07T03:01:06;5.20;;;1.97;;
42760;SDS011;31672;47.638;19.026;2024-03-07T03:06:10;4.30;;;1.83;;
42760;SDS011;31672;47.638;19.026;2024-03-07T03:11:14;2.93;;;1.63;;
42760;SDS011;31672;47.638;19.026;2024-03-07T03:16:18;3.23;;;2.03;;
42760;SDS011;31672;47.638;19.026;2024-03-07T03:21:40;9.07;;;2.90;;
42760;SDS011;31672;47.638;19.026;2024-03-07T03:26:51;7.32;;;3.15;;
42760;SDS011;31672;47.638;19.026;2024-03-07T03:31:55;6.23;;;3.33;;
42760;SDS011;31672;47.638;19.026;2024-03-07T03:36:59;4.70;;;2.50;;
42760;SDS011;31672;47.638;19.026;2024-03-07T03:42:03;4.13;;;2.00;;
42760;SDS011;31672;47.638;19.026;2024-03-07T03:47:07;3.87;;;1.90;;
42760;SDS011;31672;47.638;19.026;2024-03-07T03:52:10;3.60;;;1.60;;
42760;SDS011;31672;47.638;19.026;2024-03-07T03:57:14;4.83;;;2.20;;
42760;SDS011;31672;47.638;19.026;2024-03-07T04:02:24;4.57;;;2.30;;
42760;SDS011;31672;47.638;19.026;2024-03-07T04:07:28;3.00;;;1.80;;
42760;SDS011;31672;47.638;19.026;2024-03-07T04:12:32;4.70;;;1.93;;
42760;SDS011;31672;47.638;19.026;2024-03-07T04:17:42;4.23;;;2.23;;
42760;SDS011;31672;47.638;19.026;2024-03-07T04:22:48;4.07;;;2.13;;
42760;SDS011;31672;47.638;19.026;2024-03-07T04:27:54;3.03;;;1.80;;
42760;SDS011;31672;47.638;19.026;2024-03-07T04:32:57;3.90;;;1.87;;
42760;SDS011;31672;47.638;19.026;2024-03-07T04:38:01;4.23;;;1.63;;
42760;SDS011;31672;47.638;19.026;2024-03-07T04:43:05;3.53;;;1.57;;
42760;SDS011;31672;47.638;19.026;2024-03-07T04:48:08;3.27;;;1.70;;
42760;SDS011;31672;47.638;19.026;2024-03-07T04:53:12;3.00;;;1.50;;
42760;SDS011;31672;47.638;19.026;2024-03-07T04:58:17;5.00;;;2.53;;
42760;SDS011;31672;47.638;19.026;2024-03-07T05:03:20;5.37;;;2.37;;
42760;SDS011;31672;47.638;19.026;2024-03-07T05:08:27;6.70;;;2.47;;
42760;SDS011;31672;47.638;19.026;2024-03-07T05:13:30;7.27;;;3.03;;
42760;SDS011;31672;47.638;19.026;2024-03-07T05:18:37;8.13;;;3.53;;
42760;SDS011;31672;47.638;19.026;2024-03-07T05:23:40;8.87;;;4.40;;
42760;SDS011;31672;47.638;19.026;2024-03-07T05:28:44;8.60;;;2.87;;
42760;SDS011;31672;47.638;19.026;2024-03-07T05:33:48;6.10;;;2.60;;
42760;SDS011;31672;47.638;19.026;2024-03-07T05:38:51;5.97;;;2.33;;
42760;SDS011;31672;47.638;19.026;2024-03-07T05:43:55;5.03;;;2.33;;
42760;SDS011;31672;47.638;19.026;2024-03-07T05:48:59;7.13;;;2.43;;
42760;SDS011;31672;47.638;19.026;2024-03-07T05:54:02;3.90;;;2.53;;
42760;SDS011;31672;47.638;19.026;2024-03-07T05:59:09;5.17;;;2.50;;
42760;SDS011;31672;47.638;19.026;2024-03-07T06:04:13;117.77;;;8.77;;
42760;SDS011;31672;47.638;19.026;2024-03-07T06:09:18;5.43;;;2.13;;
42760;SDS011;31672;47.638;19.026;2024-03-07T06:14:24;4.37;;;2.23;;
42760;SDS011;31672;47.638;19.026;2024-03-07T06:19:27;3.93;;;2.33;;
42760;SDS011;31672;47.638;19.026;2024-03-07T06:24:31;5.23;;;1.70;;
42760;SDS011;31672;47.638;19.026;2024-03-07T06:29:36;3.20;;;2.00;;
42760;SDS011;31672;47.638;19.026;2024-03-07T06:34:39;6.37;;;2.50;;
42760;SDS011;31672;47.638;19.026;2024-03-07T06:39:43;4.20;;;2.50;;
42760;SDS011;31672;47.638;19.026;2024-03-07T06:44:46;3.43;;;1.83;;
42760;SDS011;31672;47.638;19.026;2024-03-07T06:49:50;3.53;;;2.10;;
42760;SDS011;31672;47.638;19.026;2024-03-07T06:54:55;3.93;;;1.90;;
42760;SDS011;31672;47.638;19.026;2024-03-07T06:59:59;3.20;;;1.90;;
42760;SDS011;31672;47.638;19.026;2024-03-07T07:05:06;2.43;;;1.60;;
42760;SDS011;31672;47.638;19.026;2024-03-07T07:10:21;4.83;;;2.60;;
42760;SDS011;31672;47.638;19.026;2024-03-07T07:15:28;4.00;;;1.80;;
42760;SDS011;31672;47.638;19.026;2024-03-07T07:20:31;7.90;;;2.30;;
42760;SDS011;31672;47.638;19.026;2024-03-07T07:25:37;3.77;;;2.20;;
42760;SDS011;31672;47.638;19.026;2024-03-07T07:30:41;3.93;;;2.10;;
42760;SDS011;31672;47.638;19.026;2024-03-07T07:35:47;3.43;;;2.00;;
42760;SDS011;31672;47.638;19.026;2024-03-07T07:40:52;5.77;;;2.70;;
42760;SDS011;31672;47.638;19.026;2024-03-07T07:45:55;4.60;;;2.37;;
42760;SDS011;31672;47.638;19.026;2024-03-07T07:50:59;3.33;;;2.60;;
42760;SDS011;31672;47.638;19.026;2024-03-07T07:56:02;6.13;;;2.93;;
42760;SDS011;31672;47.638;19.026;2024-03-07T08:01:07;4.27;;;2.53;;
42760;SDS011;31672;47.638;19.026;2024-03-07T08:06:12;3.33;;;1.87;;
42760;SDS011;31672;47.638;19.026;2024-03-07T08:11:16;4.30;;;2.23;;
42760;SDS011;31672;47.638;19.026;2024-03-07T08:16:21;3.57;;;2.10;;
42760;SDS011;31672;47.638;19.026;2024-03-07T08:21:25;3.83;;;2.23;;
42760;SDS011;31672;47.638;19.026;2024-03-07T08:26:29;7.00;;;2.73;;
42760;SDS011;31672;47.638;19.026;2024-03-07T08:31:33;2.67;;;2.00;;
42760;SDS011;31672;47.638;19.026;2024-03-07T08:36:37;4.90;;;1.97;;
42760;SDS011;31672;47.638;19.026;2024-03-07T08:41:42;4.93;;;2.43;;
42760;SDS011;31672;47.638;19.026;2024-03-07T08:46:49;2.90;;;1.87;;
42760;SDS011;31672;47.638;19.026;2024-03-07T08:51:53;4.23;;;2.47;;
42760;SDS011;31672;47.638;19.026;2024-03-07T08:56:57;7.80;;;2.13;;
42760;SDS011;31672;47.638;19.026;2024-03-07T09:02:01;2.90;;;1.97;;
42760;SDS011;31672;47.638;19.026;2024-03-07T09:07:04;3.80;;;2.47;;
42760;SDS011;31672;47.638;19.026;2024-03-07T09:12:09;4.67;;;2.30;;
42760;SDS011;31672;47.638;19.026;2024-03-07T09:17:13;7.27;;;3.80;;
42760;SDS011;31672;47.638;19.026;2024-03-07T09:22:16;7.37;;;3.77;;
42760;SDS011;31672;47.638;19.026;2024-03-07T09:27:21;8.20;;;3.30;;
42760;SDS011;31672;47.638;19.026;2024-03-07T09:32:24;8.77;;;4.03;;
42760;SDS011;31672;47.638;19.026;2024-03-07T09:37:28;8.00;;;3.40;;
42760;SDS011;31672;47.638;19.026;2024-03-07T09:42:32;9.33;;;3.93;;
42760;SDS011;31672;47.638;19.026;2024-03-07T09:47:38;8.53;;;3.87;;
42760;SDS011;31672;47.638;19.026;2024-03-07T09:52:42;5.63;;;2.83;;
42760;SDS011;31672;47.638;19.026;2024-03-07T09:57:49;6.17;;;3.27;;
42760;SDS011;31672;47.638;19.026;2024-03-07T10:02:54;4.53;;;2.77;;
42760;SDS011;31672;47.638;19.026;2024-03-07T10:08:00;8.00;;;3.80;;
42760;SDS011;31672;47.638;19.026;2024-03-07T10:13:05;9.03;;;3.87;;
42760;SDS011;31672;47.638;19.026;2024-03-07T10:18:11;9.33;;;4.00;;
42760;SDS011;31672;47.638;19.026;2024-03-07T10:23:20;17.53;;;6.83;;
42760;SDS011;31672;47.638;19.026;2024-03-07T10:28:26;12.33;;;5.73;;
42760;SDS011;31672;47.638;19.026;2024-03-07T10:33:31;5.70;;;3.70;;
42760;SDS011;31672;47.638;19.026;2024-03-07T10:38:37;6.47;;;3.53;;
42760;SDS011;31672;47.638;19.026;2024-03-07T10:43:41;6.03;;;3.63;;
42760;SDS011;31672;47.638;19.026;2024-03-07T10:48:52;5.93;;;3.60;;
42760;SDS011;31672;47.638;19.026;2024-03-07T10:59:25;7.93;;;3.67;;
42760;SDS011;31672;47.638;19.026;2024-03-07T11:04:32;11.10;;;4.40;;
42760;SDS011;31672;47.638;19.026;2024-03-07T11:09:37;5.30;;;3.07;;
42760;SDS011;31672;47.638;19.026;2024-03-07T11:14:44;7.53;;;3.87;;
42760;SDS011;31672;47.638;19.026;2024-03-07T11:19:50;6.40;;;3.60;;
42760;SDS011;31672;47.638;19.026;2024-03-07T11:25:00;6.37;;;2.90;;
42760;SDS011;31672;47.638;19.026;2024-03-07T11:30:14;7.50;;;4.13;;
42760;SDS011;31672;47.638;19.026;2024-03-07T11:35:20;6.00;;;3.00;;
42760;SDS011;31672;47.638;19.026;2024-03-07T11:45:41;6.00;;;3.50;;
42760;SDS011;31672;47.638;19.026;2024-03-07T11:50:48;6.47;;;3.13;;
42760;SDS011;31672;47.638;19.026;2024-03-07T11:55:52;5.93;;;3.43;;
42760;SDS011;31672;47.638;19.026;2024-03-07T12:00:57;6.07;;;3.20;;
42760;SDS011;31672;47.638;19.026;2024-03-07T12:06:01;6.90;;;3.70;;
42760;SDS011;31672;47.638;19.026;2024-03-07T12:11:05;6.47;;;3.43;;
42760;SDS011;31672;47.638;19.026;2024-03-07T12:16:08;6.80;;;4.00;;
42760;SDS011;31672;47.638;19.026;2024-03-07T12:21:12;5.40;;;3.50;;
42760;SDS011;31672;47.638;19.026;2024-03-07T12:26:19;7.63;;;3.80;;
42760;SDS011;31672;47.638;19.026;2024-03-07T12:31:27;6.03;;;3.60;;
42760;SDS011;31672;47.638;19.026;2024-03-07T12:36:37;6.90;;;4.10;;
42760;SDS011;31672;47.638;19.026;2024-03-07T12:41:50;6.13;;;3.63;;
42760;SDS011;31672;47.638;19.026;2024-03-07T12:46:58;6.23;;;3.73;;
42760;SDS011;31672;47.638;19.026;2024-03-07T12:52:03;7.77;;;3.50;;
42760;SDS011;31672;47.638;19.026;2024-03-07T12:57:11;7.30;;;3.50;;
42760;SDS011;31672;47.638;19.026;2024-03-07T13:02:15;5.33;;;3.40;;
42760;SDS011;31672;47.638;19.026;2024-03-07T13:07:19;5.90;;;4.07;;
42760;SDS011;31672;47.638;19.026;2024-03-07T13:12:22;6.93;;;4.10;;
42760;SDS011;31672;47.638;19.026;2024-03-07T13:17:26;10.00;;;4.80;;
42760;SDS011;31672;47.638;19.026;2024-03-07T13:22:30;8.63;;;4.00;;
42760;SDS011;31672;47.638;19.026;2024-03-07T13:27:33;6.90;;;3.33;;
42760;SDS011;31672;47.638;19.026;2024-03-07T13:32:38;6.33;;;3.20;;
42760;SDS011;31672;47.638;19.026;2024-03-07T13:37:44;7.13;;;3.90;;
42760;SDS011;31672;47.638;19.026;2024-03-07T13:42:56;6.10;;;3.57;;
42760;SDS011;31672;47.638;19.026;2024-03-07T13:47:59;9.40;;;3.87;;
42760;SDS011;31672;47.638;19.026;2024-03-07T13:53:03;7.60;;;4.30;;
42760;SDS011;31672;47.638;19.026;2024-03-07T13:58:17;8.87;;;4.47;;
42760;SDS011;31672;47.638;19.026;2024-03-07T14:14:59;8.60;;;4.27;;
42760;SDS011;31672;47.638;19.026;2024-03-07T14:32:35;5.90;;;3.23;;
42760;SDS011;31672;47.638;19.026;2024-03-07T14:37:54;6.33;;;3.37;;
42760;SDS011;31672;47.638;19.026;2024-03-07T14:43:05;6.37;;;3.43;;
42760;SDS011;31672;47.638;19.026;2024-03-07T14:48:11;6.33;;;3.60;;
42760;SDS011;31672;47.638;19.026;2024-03-07T14:53:19;8.07;;;3.93;;
42760;SDS011;31672;47.638;19.026;2024-03-07T14:58:23;7.17;;;3.80;;
42760;SDS011;31672;47.638;19.026;2024-03-07T15:03:27;8.03;;;4.33;;
42760;SDS011;31672;47.638;19.026;2024-03-07T15:08:32;7.07;;;3.93;;
42760;SDS011;31672;47.638;19.026;2024-03-07T15:13:36;8.03;;;4.40;;
42760;SDS011;31672;47.638;19.026;2024-03-07T15:18:39;7.70;;;3.90;;
42760;SDS011;31672;47.638;19.026;2024-03-07T15:23:46;8.87;;;3.97;;
42760;SDS011;31672;47.638;19.026;2024-03-07T15:28:50;8.63;;;4.87;;
42760;SDS011;31672;47.638;19.026;2024-03-07T15:33:55;6.43;;;3.57;;
42760;SDS011;31672;47.638;19.026;2024-03-07T15:38:59;8.07;;;4.33;;
42760;SDS011;31672;47.638;19.026;2024-03-07T15:44:10;5.32;;;3.22;;
42760;SDS011;31672;47.638;19.026;2024-03-07T15:49:14;8.87;;;4.30;;
42760;SDS011;31672;47.638;19.026;2024-03-07T15:54:18;7.10;;;3.90;;
42760;SDS011;31672;47.638;19.026;2024-03-07T15:59:21;6.60;;;3.30;;
42760;SDS011;31672;47.638;19.026;2024-03-07T16:04:25;8.27;;;4.57;;
42760;SDS011;31672;47.638;19.026;2024-03-07T16:09:29;8.97;;;5.23;;
42760;SDS011;31672;47.638;19.026;2024-03-07T16:14:33;9.10;;;5.03;;
42760;SDS011;31672;47.638;19.026;2024-03-07T16:19:36;8.50;;;5.53;;
42760;SDS011;31672;47.638;19.026;2024-03-07T16:24:39;7.70;;;4.47;;
42760;SDS011;31672;47.638;19.026;2024-03-07T16:29:47;7.27;;;4.40;;
42760;SDS011;31672;47.638;19.026;2024-03-07T16:34:51;7.17;;;4.33;;
42760;SDS011;31672;47.638;19.026;2024-03-07T16:39:56;7.67;;;4.77;;
42760;SDS011;31672;47.638;19.026;2024-03-07T16:45:00;11.40;;;6.23;;
42760;SDS011;31672;47.638;19.026;2024-03-07T16:50:07;12.33;;;5.67;;
42760;SDS011;31672;47.638;19.026;2024-03-07T16:55:11;12.60;;;6.47;;
42760;SDS011;31672;47.638;19.026;2024-03-07T17:00:16;9.03;;;5.47;;
42760;SDS011;31672;47.638;19.026;2024-03-07T17:05:30;11.27;;;7.73;;
42760;SDS011;31672;47.638;19.026;2024-03-07T17:10:36;12.23;;;6.77;;
42760;SDS011;31672;47.638;19.026;2024-03-07T17:15:43;11.33;;;6.97;;
42760;SDS011;31672;47.638;19.026;2024-03-07T17:20:49;14.90;;;9.03;;
42760;SDS011;31672;47.638;19.026;2024-03-07T17:25:52;10.63;;;5.90;;
42760;SDS011;31672;47.638;19.026;2024-03-07T17:30:58;14.40;;;6.33;;
42760;SDS011;31672;47.638;19.026;2024-03-07T17:36:02;13.40;;;7.17;;
42760;SDS011;31672;47.638;19.026;2024-03-07T17:41:13;11.03;;;5.40;;
42760;SDS011;31672;47.638;19.026;2024-03-07T17:46:18;8.60;;;5.30;;
42760;SDS011;31672;47.638;19.026;2024-03-07T17:51:23;24.17;;;11.40;;
42760;SDS011;31672;47.638;19.026;2024-03-07T17:56:27;10.27;;;6.67;;
42760;SDS011;31672;47.638;19.026;2024-03-07T18:01:31;35.20;;;11.90;;
42760;SDS011;31672;47.638;19.026;2024-03-07T18:06:35;15.77;;;6.60;;
42760;SDS011;31672;47.638;19.026;2024-03-07T18:11:39;8.13;;;4.90;;
42760;SDS011;31672;47.638;19.026;2024-03-07T18:16:42;7.87;;;4.93;;
42760;SDS011;31672;47.638;19.026;2024-03-07T18:21:46;10.93;;;5.73;;
42760;SDS011;31672;47.638;19.026;2024-03-07T18:26:49;11.47;;;5.77;;
42760;SDS011;31672;47.638;19.026;2024-03-07T18:31:52;13.20;;;5.97;;
42760;SDS011;31672;47.638;19.026;2024-03-07T18:36:56;10.77;;;5.63;;
42760;SDS011;31672;47.638;19.026;2024-03-07T18:42:00;12.37;;;5.47;;
42760;SDS011;31672;47.638;19.026;2024-03-07T18:47:03;17.40;;;7.83;;
42760;SDS011;31672;47.638;19.026;2024-03-07T18:52:08;11.63;;;5.80;;
42760;SDS011;31672;47.638;19.026;2024-03-07T18:57:14;15.03;;;6.77;;
42760;SDS011;31672;47.638;19.026;2024-03-07T19:02:17;13.40;;;6.47;;
42760;SDS011;31672;47.638;19.026;2024-03-07T19:07:23;18.53;;;8.20;;
42760;SDS011;31672;47.638;19.026;2024-03-07T19:12:26;17.07;;;6.87;;
42760;SDS011;31672;47.638;19.026;2024-03-07T19:17:30;16.87;;;10.27;;
42760;SDS011;31672;47.638;19.026;2024-03-07T19:22:33;13.60;;;8.70;;
42760;SDS011;31672;47.638;19.026;2024-03-07T20:18:19;12.67;;;6.90;;
42760;SDS011;31672;47.638;19.026;2024-03-07T20:23:23;12.33;;;5.70;;
42760;SDS011;31672;47.638;19.026;2024-03-07T20:28:30;13.43;;;6.00;;
42760;SDS011;31672;47.638;19.026;2024-03-07T20:33:33;12.63;;;7.00;;
42760;SDS011;31672;47.638;19.026;2024-03-07T20:38:37;11.07;;;5.23;;
42760;SDS011;31672;47.638;19.026;2024-03-07T20:43:41;9.97;;;5.57;;
42760;SDS011;31672;47.638;19.026;2024-03-07T20:48:45;11.80;;;5.33;;
42760;SDS011;31672;47.638;19.026;2024-03-07T20:53:50;11.00;;;5.27;;
42760;SDS011;31672;47.638;19.026;2024-03-07T20:58:55;8.33;;;4.47;;
42760;SDS011;31672;47.638;19.026;2024-03-07T21:03:59;9.63;;;5.00;;
42760;SDS011;31672;47.638;19.026;2024-03-07T21:09:03;9.63;;;4.40;;
42760;SDS011;31672;47.638;19.026;2024-03-07T21:14:12;8.67;;;4.70;;
42760;SDS011;31672;47.638;19.026;2024-03-07T21:19:16;11.23;;;4.90;;
42760;SDS011;31672;47.638;19.026;2024-03-07T21:24:19;10.93;;;5.33;;
42760;SDS011;31672;47.638;19.026;2024-03-07T21:29:23;11.13;;;5.67;;
42760;SDS011;31672;47.638;19.026;2024-03-07T21:34:26;10.50;;;5.40;;
42760;SDS011;31672;47.638;19.026;2024-03-07T21:39:30;14.67;;;6.30;;
42760;SDS011;31672;47.638;19.026;2024-03-07T21:44:34;11.03;;;5.43;;
42760;SDS011;31672;47.638;19.026;2024-03-07T21:49:40;12.13;;;6.13;;
42760;SDS011;31672;47.638;19.026;2024-03-07T21:54:45;12.10;;;5.77;;
42760;SDS011;31672;47.638;19.026;2024-03-07T21:59:51;8.80;;;5.00;;
42760;SDS011;31672;47.638;19.026;2024-03-07T22:04:54;11.00;;;5.63;;
42760;SDS011;31672;47.638;19.026;2024-03-07T22:10:04;8.80;;;4.87;;
42760;SDS011;31672;47.638;19.026;2024-03-07T22:15:08;10.87;;;4.83;;
42760;SDS011;31672;47.638;19.026;2024-03-07T22:20:15;10.90;;;5.57;;
42760;SDS011;31672;47.638;19.026;2024-03-07T22:25:23;13.10;;;5.80;;
42760;SDS011;31672;47.638;19.026;2024-03-07T22:30:28;10.83;;;5.63;;
42760;SDS011;31672;47.638;19.026;2024-03-07T22:35:32;13.50;;;6.67;;
42760;SDS011;31672;47.638;19.026;2024-03-07T22:40:37;12.07;;;5.53;;
42760;SDS011;31672;47.638;19.026;2024-03-07T22:45:40;16.07;;;6.93;;
42760;SDS011;31672;47.638;19.026;2024-03-07T22:50:45;13.40;;;7.13;;
42760;SDS011;31672;47.638;19.026;2024-03-07T22:55:48;15.40;;;7.03;;
42760;SDS011;31672;47.638;19.026;2024-03-07T23:00:52;16.60;;;7.60;;
42760;SDS011;31672;47.638;19.026;2024-03-07T23:05:56;11.30;;;5.97;;
42760;SDS011;31672;47.638;19.026;2024-03-07T23:11:00;14.53;;;7.33;;
42760;SDS011;31672;47.638;19.026;2024-03-07T23:16:04;16.43;;;7.23;;
42760;SDS011;31672;47.638;19.026;2024-03-07T23:21:07;13.43;;;6.87;;
42760;SDS011;31672;47.638;19.026;2024-03-07T23:26:11;15.20;;;7.30;;
42760;SDS011;31672;47.638;19.026;2024-03-07T23:31:15;13.93;;;6.37;;
42760;SDS011;31672;47.638;19.026;2024-03-07T23:36:19;17.50;;;7.30;;
42760;SDS011;31672;47.638;19.026;2024-03-07T23:41:25;16.77;;;7.57;;
42760;SDS011;31672;47.638;19.026;2024-03-07T23:46:31;14.93;;;6.67;;
42760;SDS011;31672;47.638;19.026;2024-03-07T23:51:35;15.83;;;7.40;;
42760;SDS011;31672;47.638;19.026;2024-03-07T23:56:38;16.47;;;7.97;;
